sensor_id;sensor_type;location;lat;lon;timestamp;pressure;altitude;pressure_sealevel;temperature;humidity
75936;BME280;64614;32.062;34.834;2023-05-09T00:00:43;100872.84;;;25.19;49.88
75936;BME280;64614;32.062;34.834;2023-05-09T00:03:09;100868.47;;;25.18;49.98
75936;BME280;64614;32.062;34.834;2023-05-09T00:05:37;100875.59;;;25.19;50.04
75936;BME280;64614;32.062;34.834;2023-05-09T00:08:03;100870.09;;;25.19;49.95
75936;BME280;64614;32.062;34.834;2023-05-09T00:10:29;100874.81;;;25.18;49.98
75936;BME280;64614;32.062;34.834;2023-05-09T00:12:55;100869.31;;;25.18;50.12
75936;BME280;64614;32.062;34.834;2023-05-09T00:15:21;100876.72;;;25.18;50.10
75936;BME280;64614;32.062;34.834;2023-05-09T00:17:48;100864.59;;;25.19;50.29
75936;BME280;64614;32.062;34.834;2023-05-09T00:20:14;100877.22;;;25.20;50.14
75936;BME280;64614;32.062;34.834;2023-05-09T00:22:41;100874.47;;;25.20;50.10
75936;BME280;64614;32.062;34.834;2023-05-09T00:25:10;100880.78;;;25.21;50.20
75936;BME280;64614;32.062;34.834;2023-05-09T00:27:36;100885.47;;;25.20;50.14
75936;BME280;64614;32.062;34.834;2023-05-09T00:30:03;100878.84;;;25.21;50.28
75936;BME280;64614;32.062;34.834;2023-05-09T00:32:29;100873.69;;;25.19;50.18
75936;BME280;64614;32.062;34.834;2023-05-09T00:34:55;100870.94;;;25.19;50.14
75936;BME280;64614;32.062;34.834;2023-05-09T00:37:20;100866.22;;;25.20;50.14
75936;BME280;64614;32.062;34.834;2023-05-09T00:39:47;100876.09;;;25.21;50.36
75936;BME280;64614;32.062;34.834;2023-05-09T00:42:13;100873.69;;;25.19;50.02
75936;BME280;64614;32.062;34.834;2023-05-09T00:44:38;100863.47;;;25.20;50.19
75936;BME280;64614;32.062;34.834;2023-05-09T00:47:05;100866.22;;;25.20;50.30
75936;BME280;64614;32.062;34.834;2023-05-09T00:49:31;100871.72;;;25.20;50.39
75936;BME280;64614;32.062;34.834;2023-05-09T00:51:57;100862.69;;;25.19;50.10
75936;BME280;64614;32.062;34.834;2023-05-09T00:54:23;100862.69;;;25.19;50.15
75936;BME280;64614;32.062;34.834;2023-05-09T00:56:51;100863.47;;;25.20;50.27
75936;BME280;64614;32.062;34.834;2023-05-09T00:59:17;100856.84;;;25.21;50.09
75936;BME280;64614;32.062;34.834;2023-05-09T01:01:45;100863.47;;;25.20;50.17
75936;BME280;64614;32.062;34.834;2023-05-09T01:04:11;100859.13;;;25.19;50.28
75936;BME280;64614;32.062;34.834;2023-05-09T01:06:54;100862.34;;;25.21;50.29
75936;BME280;64614;32.062;34.834;2023-05-09T01:14:59;100863.16;;;25.22;50.42
75936;BME280;64614;32.062;34.834;2023-05-09T01:22:50;100867.50;;;25.23;50.59
75936;BME280;64614;32.062;34.834;2023-05-09T01:25:32;100870.25;;;25.23;50.69
75936;BME280;64614;32.062;34.834;2023-05-09T01:30:52;100874.97;;;25.22;50.80
75936;BME280;64614;32.062;34.834;2023-05-09T01:33:19;100869.47;;;25.22;50.61
75936;BME280;64614;32.062;34.834;2023-05-09T01:35:49;100869.47;;;25.22;50.77
75936;BME280;64614;32.062;34.834;2023-05-09T01:38:18;100867.06;;;25.21;50.95
75936;BME280;64614;32.062;34.834;2023-05-09T01:40:48;100867.84;;;25.21;50.98
75936;BME280;64614;32.062;34.834;2023-05-09T01:43:18;100875.31;;;25.21;50.90
75936;BME280;64614;32.062;34.834;2023-05-09T01:45:46;100867.84;;;25.21;50.98
75936;BME280;64614;32.062;34.834;2023-05-09T01:48:14;100871.72;;;25.20;50.73
75936;BME280;64614;32.062;34.834;2023-05-09T01:50:42;100880.78;;;25.21;50.99
75936;BME280;64614;32.062;34.834;2023-05-09T01:53:10;100876.09;;;25.21;50.96
75936;BME280;64614;32.062;34.834;2023-05-09T01:55:39;100884.34;;;25.21;50.98
75936;BME280;64614;32.062;34.834;2023-05-09T01:58:06;100879.63;;;25.22;50.86
75936;BME280;64614;32.062;34.834;2023-05-09T02:00:33;100885.63;;;25.24;51.09
75936;BME280;64614;32.062;34.834;2023-05-09T02:03:00;100887.41;;;25.19;51.49
75936;BME280;64614;32.062;34.834;2023-05-09T02:05:28;100885.81;;;25.18;51.15
75936;BME280;64614;32.062;34.834;2023-05-09T02:07:55;100889.69;;;25.17;50.85
75936;BME280;64614;32.062;34.834;2023-05-09T02:10:23;100896.78;;;25.18;50.78
75936;BME280;64614;32.062;34.834;2023-05-09T02:12:50;100890.47;;;25.18;50.98
75936;BME280;64614;32.062;34.834;2023-05-09T02:15:16;100903.09;;;25.19;51.08
75936;BME280;64614;32.062;34.834;2023-05-09T02:17:42;100902.28;;;25.18;50.92
75936;BME280;64614;32.062;34.834;2023-05-09T02:20:08;100900.34;;;25.19;50.90
75936;BME280;64614;32.062;34.834;2023-05-09T02:22:35;100893.22;;;25.18;51.32
75936;BME280;64614;32.062;34.834;2023-05-09T02:25:03;100895.97;;;25.18;50.88
75936;BME280;64614;32.062;34.834;2023-05-09T02:27:31;100895.97;;;25.18;51.11
75936;BME280;64614;32.062;34.834;2023-05-09T02:30:00;100905.03;;;25.18;51.31
75936;BME280;64614;32.062;34.834;2023-05-09T02:32:30;100906.97;;;25.18;51.01
75936;BME280;64614;32.062;34.834;2023-05-09T02:34:58;100904.22;;;25.18;51.06
75936;BME280;64614;32.062;34.834;2023-05-09T02:37:25;100900.66;;;25.17;51.08
75936;BME280;64614;32.062;34.834;2023-05-09T02:39:51;100906.97;;;25.18;51.20
75936;BME280;64614;32.062;34.834;2023-05-09T02:42:21;100905.84;;;25.19;51.34
75936;BME280;64614;32.062;34.834;2023-05-09T02:44:47;100915.53;;;25.16;51.39
75936;BME280;64614;32.062;34.834;2023-05-09T02:47:12;100916.66;;;25.15;51.20
75936;BME280;64614;32.062;34.834;2023-05-09T02:49:38;100922.50;;;25.14;51.04
75936;BME280;64614;32.062;34.834;2023-05-09T02:52:04;100924.13;;;25.15;51.16
75936;BME280;64614;32.062;34.834;2023-05-09T02:54:29;100921.84;;;25.17;51.18
75936;BME280;64614;32.062;34.834;2023-05-09T02:56:55;100932.81;;;25.17;51.20
75936;BME280;64614;32.062;34.834;2023-05-09T02:59:21;100934.44;;;25.18;51.05
75936;BME280;64614;32.062;34.834;2023-05-09T03:01:46;100933.31;;;25.19;51.21
75936;BME280;64614;32.062;34.834;2023-05-09T03:04:12;100938.81;;;25.19;51.34
75936;BME280;64614;32.062;34.834;2023-05-09T03:06:38;100935.56;;;25.17;51.43
75936;BME280;64614;32.062;34.834;2023-05-09T03:09:03;100938.81;;;25.19;51.28
75936;BME280;64614;32.062;34.834;2023-05-09T03:11:29;100939.16;;;25.17;51.52
75936;BME280;64614;32.062;34.834;2023-05-09T03:13:55;100934.44;;;25.18;51.08
75936;BME280;64614;32.062;34.834;2023-05-09T03:16:21;100939.16;;;25.17;51.28
75936;BME280;64614;32.062;34.834;2023-05-09T03:18:47;100944.31;;;25.19;51.32
75936;BME280;64614;32.062;34.834;2023-05-09T03:21:12;100941.91;;;25.17;51.19
75936;BME280;64614;32.062;34.834;2023-05-09T03:23:38;100943.81;;;25.17;51.22
75936;BME280;64614;32.062;34.834;2023-05-09T03:26:04;100948.19;;;25.18;51.46
75936;BME280;64614;32.062;34.834;2023-05-09T03:28:30;100952.56;;;25.19;51.36
75936;BME280;64614;32.062;34.834;2023-05-09T03:30:55;100958.06;;;25.19;51.17
75936;BME280;64614;32.062;34.834;2023-05-09T03:33:21;100954.34;;;25.24;51.24
75936;BME280;64614;32.062;34.834;2023-05-09T03:35:47;100947.06;;;25.19;51.65
75936;BME280;64614;32.062;34.834;2023-05-09T03:38:12;100954.81;;;25.17;51.17
75936;BME280;64614;32.062;34.834;2023-05-09T03:40:38;100950.94;;;25.18;51.38
75936;BME280;64614;32.062;34.834;2023-05-09T03:43:03;100953.22;;;25.16;51.67
75936;BME280;64614;32.062;34.834;2023-05-09T03:45:29;100944.47;;;25.14;51.47
75936;BME280;64614;32.062;34.834;2023-05-09T03:47:56;100957.72;;;25.12;51.43
75936;BME280;64614;32.062;34.834;2023-05-09T03:50:22;100956.44;;;25.09;51.66
75936;BME280;64614;32.062;34.834;2023-05-09T03:52:49;100957.56;;;25.08;51.49
75936;BME280;64614;32.062;34.834;2023-05-09T03:55:15;100957.91;;;25.07;51.17
75936;BME280;64614;32.062;34.834;2023-05-09T03:57:41;100963.41;;;25.07;51.30
75936;BME280;64614;32.062;34.834;2023-05-09T04:00:07;100961.28;;;25.03;51.41
75936;BME280;64614;32.062;34.834;2023-05-09T04:02:34;100965.78;;;24.99;51.23
75936;BME280;64614;32.062;34.834;2023-05-09T04:05:00;100968.06;;;24.97;51.36
75936;BME280;64614;32.062;34.834;2023-05-09T04:07:26;100968.69;;;24.94;51.25
75936;BME280;64614;32.062;34.834;2023-05-09T04:09:54;100960.78;;;24.93;51.23
75936;BME280;64614;32.062;34.834;2023-05-09T04:12:20;100955.59;;;24.91;51.20
75936;BME280;64614;32.062;34.834;2023-05-09T04:14:47;100959.00;;;24.88;51.17
75936;BME280;64614;32.062;34.834;2023-05-09T04:17:13;100951.38;;;24.85;51.11
75936;BME280;64614;32.062;34.834;2023-05-09T04:19:39;100954.47;;;24.83;50.95
75936;BME280;64614;32.062;34.834;2023-05-09T04:22:04;100950.88;;;24.83;51.07
75936;BME280;64614;32.062;34.834;2023-05-09T04:24:30;100951.22;;;24.81;51.05
75936;BME280;64614;32.062;34.834;2023-05-09T04:26:56;100955.09;;;24.80;51.32
75936;BME280;64614;32.062;34.834;2023-05-09T04:29:22;100949.94;;;24.79;51.00
75936;BME280;64614;32.062;34.834;2023-05-09T04:31:49;100953.47;;;24.79;51.03
75936;BME280;64614;32.062;34.834;2023-05-09T04:34:14;100950.72;;;24.79;51.31
75936;BME280;64614;32.062;34.834;2023-05-09T04:36:40;100958.97;;;24.79;51.09
75936;BME280;64614;32.062;34.834;2023-05-09T04:39:06;100949.09;;;24.78;51.07
75936;BME280;64614;32.062;34.834;2023-05-09T04:41:32;100955.41;;;24.79;51.11
75936;BME280;64614;32.062;34.834;2023-05-09T04:43:58;100960.91;;;24.79;50.95
75936;BME280;64614;32.062;34.834;2023-05-09T04:46:23;100955.91;;;24.81;51.11
75936;BME280;64614;32.062;34.834;2023-05-09T04:48:50;100956.38;;;24.83;51.02
75936;BME280;64614;32.062;34.834;2023-05-09T04:51:15;100954.97;;;24.85;50.90
75936;BME280;64614;32.062;34.834;2023-05-09T04:53:41;100949.94;;;24.87;50.96
75936;BME280;64614;32.062;34.834;2023-05-09T04:56:06;100955.13;;;24.89;50.84
75936;BME280;64614;32.062;34.834;2023-05-09T04:58:32;100952.84;;;24.91;50.94
75936;BME280;64614;32.062;34.834;2023-05-09T05:01:03;100951.25;;;24.90;50.89
75936;BME280;64614;32.062;34.834;2023-05-09T05:03:29;100949.78;;;24.93;50.73
75936;BME280;64614;32.062;34.834;2023-05-09T05:05:55;100950.91;;;24.92;50.66
75936;BME280;64614;32.062;34.834;2023-05-09T05:08:20;100954.47;;;24.92;50.80
75936;BME280;64614;32.062;34.834;2023-05-09T05:10:46;100948.50;;;24.90;50.78
75936;BME280;64614;32.062;34.834;2023-05-09T05:13:13;100958.34;;;24.91;50.46
75936;BME280;64614;32.062;34.834;2023-05-09T05:15:40;100964.34;;;24.93;50.85
75936;BME280;64614;32.062;34.834;2023-05-09T05:18:06;100948.97;;;24.92;50.46
75936;BME280;64614;32.062;34.834;2023-05-09T05:20:31;100959.97;;;24.92;50.39
75936;BME280;64614;32.062;34.834;2023-05-09T05:22:59;100956.41;;;24.92;50.55
75936;BME280;64614;32.062;34.834;2023-05-09T05:25:25;100953.66;;;24.92;50.58
75936;BME280;64614;32.062;34.834;2023-05-09T05:27:51;100941.84;;;24.91;50.54
75936;BME280;64614;32.062;34.834;2023-05-09T05:30:16;100950.44;;;24.90;50.46
75936;BME280;64614;32.062;34.834;2023-05-09T05:32:42;100940.06;;;24.86;50.38
75936;BME280;64614;32.062;34.834;2023-05-09T05:35:08;100948.63;;;24.85;50.44
75936;BME280;64614;32.062;34.834;2023-05-09T05:37:41;100940.72;;;24.83;50.31
75936;BME280;64614;32.062;34.834;2023-05-09T05:40:07;100940.22;;;24.81;50.18
75936;BME280;64614;32.062;34.834;2023-05-09T05:42:33;100946.06;;;24.80;50.34
75936;BME280;64614;32.062;34.834;2023-05-09T05:44:59;100946.06;;;24.80;50.09
75936;BME280;64614;32.062;34.834;2023-05-09T05:47:32;100938.94;;;24.79;50.38
75936;BME280;64614;32.062;34.834;2023-05-09T05:49:59;100943.59;;;24.78;50.12
75936;BME280;64614;32.062;34.834;2023-05-09T05:52:25;100948.31;;;24.78;50.20
75936;BME280;64614;32.062;34.834;2023-05-09T05:54:53;100936.19;;;24.79;50.29
75936;BME280;64614;32.062;34.834;2023-05-09T05:57:19;100936.69;;;24.81;50.39
75936;BME280;64614;32.062;34.834;2023-05-09T05:59:49;100937.66;;;24.85;50.26
75936;BME280;64614;32.062;34.834;2023-05-09T06:02:16;100941.38;;;24.89;50.02
75936;BME280;64614;32.062;34.834;2023-05-09T06:04:42;100941.84;;;24.91;50.87
75936;BME280;64614;32.062;34.834;2023-05-09T06:07:08;100938.16;;;24.96;50.20
75936;BME280;64614;32.062;34.834;2023-05-09T06:09:34;100943.34;;;24.97;50.39
75936;BME280;64614;32.062;34.834;2023-05-09T06:12:00;100943.16;;;25.02;50.10
75936;BME280;64614;32.062;34.834;2023-05-09T06:14:25;100929.94;;;25.05;50.15
75936;BME280;64614;32.062;34.834;2023-05-09T06:16:52;100932.03;;;25.08;50.11
75936;BME280;64614;32.062;34.834;2023-05-09T06:19:17;100938.50;;;25.12;50.02
75936;BME280;64614;32.062;34.834;2023-05-09T06:21:44;100937.03;;;25.14;50.26
75936;BME280;64614;32.062;34.834;2023-05-09T06:24:10;100943.34;;;25.15;49.91
75936;BME280;64614;32.062;34.834;2023-05-09T06:26:36;100944.31;;;25.19;50.03
75936;BME280;64614;32.062;34.834;2023-05-09T06:29:02;100934.16;;;25.19;49.76
75936;BME280;64614;32.062;34.834;2023-05-09T06:31:28;100936.22;;;25.23;50.09
75936;BME280;64614;32.062;34.834;2023-05-09T06:33:54;100933.97;;;25.25;49.98
75936;BME280;64614;32.062;34.834;2023-05-09T06:36:20;100935.25;;;25.27;49.92
75936;BME280;64614;32.062;34.834;2023-05-09T06:38:45;100942.06;;;25.30;49.86
75936;BME280;64614;32.062;34.834;2023-05-09T06:41:11;100944.50;;;25.31;50.04
75936;BME280;64614;32.062;34.834;2023-05-09T06:43:37;100945.44;;;25.35;49.80
75936;BME280;64614;32.062;34.834;2023-05-09T06:46:02;100943.53;;;25.36;49.96
75936;BME280;64614;32.062;34.834;2023-05-09T06:48:28;100948.19;;;25.35;49.52
75936;BME280;64614;32.062;34.834;2023-05-09T06:50:54;100952.25;;;25.38;49.81
75936;BME280;64614;32.062;34.834;2023-05-09T06:53:20;100951.31;;;25.43;49.74
75936;BME280;64614;32.062;34.834;2023-05-09T06:55:46;100949.84;;;25.45;49.95
75936;BME280;64614;32.062;34.834;2023-05-09T06:58:12;100954.69;;;25.48;49.67
75936;BME280;64614;32.062;34.834;2023-05-09T07:00:38;100953.88;;;25.48;49.62
75936;BME280;64614;32.062;34.834;2023-05-09T07:03:03;100952.75;;;25.49;49.93
75936;BME280;64614;32.062;34.834;2023-05-09T07:05:32;100958.75;;;25.51;49.59
75936;BME280;64614;32.062;34.834;2023-05-09T07:07:58;100955.66;;;25.53;49.80
75936;BME280;64614;32.062;34.834;2023-05-09T07:10:24;100952.91;;;25.53;49.78
75936;BME280;64614;32.062;34.834;2023-05-09T07:12:51;100958.09;;;25.54;49.77
75936;BME280;64614;32.062;34.834;2023-05-09T07:15:16;100955.34;;;25.54;49.80
75936;BME280;64614;32.062;34.834;2023-05-09T07:17:42;100950.31;;;25.56;49.58
75936;BME280;64614;32.062;34.834;2023-05-09T07:20:10;100947.56;;;25.56;49.77
75936;BME280;64614;32.062;34.834;2023-05-09T07:22:36;100947.09;;;25.54;49.26
75936;BME280;64614;32.062;34.834;2023-05-09T07:25:01;100944.34;;;25.54;49.62
75936;BME280;64614;32.062;34.834;2023-05-09T07:27:29;100950.31;;;25.56;49.28
75936;BME280;64614;32.062;34.834;2023-05-09T07:29:54;100939.31;;;25.56;49.59
75936;BME280;64614;32.062;34.834;2023-05-09T07:32:20;100948.06;;;25.58;49.42
75936;BME280;64614;32.062;34.834;2023-05-09T07:34:46;100943.34;;;25.59;49.57
75936;BME280;64614;32.062;34.834;2023-05-09T07:37:12;100941.44;;;25.59;49.52
75936;BME280;64614;32.062;34.834;2023-05-09T07:39:38;100940.31;;;25.60;49.25
75936;BME280;64614;32.062;34.834;2023-05-09T07:42:03;100930.88;;;25.61;49.37
75936;BME280;64614;32.062;34.834;2023-05-09T07:44:29;100922.19;;;25.59;49.30
75936;BME280;64614;32.062;34.834;2023-05-09T07:46:55;100918.75;;;25.62;49.36
75936;BME280;64614;32.062;34.834;2023-05-09T07:49:24;100918.75;;;25.62;49.28
75936;BME280;64614;32.062;34.834;2023-05-09T07:51:50;100924.25;;;25.62;49.31
75936;BME280;64614;32.062;34.834;2023-05-09T07:54:15;100921.50;;;25.62;49.39
75936;BME280;64614;32.062;34.834;2023-05-09T07:56:41;100925.88;;;25.63;48.96
75936;BME280;64614;32.062;34.834;2023-05-09T07:59:07;100925.09;;;25.63;49.21
75936;BME280;64614;32.062;34.834;2023-05-09T08:01:33;100928.63;;;25.63;49.16
75936;BME280;64614;32.062;34.834;2023-05-09T08:04:02;100928.63;;;25.63;48.96
75936;BME280;64614;32.062;34.834;2023-05-09T08:06:29;100924.25;;;25.62;49.13
75936;BME280;64614;32.062;34.834;2023-05-09T08:08:55;100923.13;;;25.63;48.97
75936;BME280;64614;32.062;34.834;2023-05-09T08:11:20;100922.00;;;25.64;48.96
75936;BME280;64614;32.062;34.834;2023-05-09T08:13:47;100922.47;;;25.67;48.86
75936;BME280;64614;32.062;34.834;2023-05-09T08:16:13;100904.38;;;25.65;49.17
75936;BME280;64614;32.062;34.834;2023-05-09T08:18:41;100911.47;;;25.67;49.32
75936;BME280;64614;32.062;34.834;2023-05-09T08:21:07;100913.56;;;25.70;49.26
75936;BME280;64614;32.062;34.834;2023-05-09T08:23:33;100910.00;;;25.69;49.24
75936;BME280;64614;32.062;34.834;2023-05-09T08:25:58;100910.00;;;25.69;48.98
75936;BME280;64614;32.062;34.834;2023-05-09T08:28:24;100909.53;;;25.67;49.13
75936;BME280;64614;32.062;34.834;2023-05-09T08:30:53;100893.84;;;25.68;48.82
75936;BME280;64614;32.062;34.834;2023-05-09T08:33:20;100903.72;;;25.69;49.06
75936;BME280;64614;32.062;34.834;2023-05-09T08:35:55;100908.41;;;25.68;48.77
75936;BME280;64614;32.062;34.834;2023-05-09T08:38:22;100908.06;;;25.70;49.08
75936;BME280;64614;32.062;34.834;2023-05-09T08:40:51;100903.72;;;25.69;48.85
75936;BME280;64614;32.062;34.834;2023-05-09T08:43:18;100903.72;;;25.69;48.73
75936;BME280;64614;32.062;34.834;2023-05-09T08:45:47;100896.59;;;25.68;48.50
75936;BME280;64614;32.062;34.834;2023-05-09T08:48:15;100894.31;;;25.70;48.77
75936;BME280;64614;32.062;34.834;2023-05-09T08:50:42;100897.88;;;25.70;48.59
75936;BME280;64614;32.062;34.834;2023-05-09T08:53:08;100895.47;;;25.69;48.60
75936;BME280;64614;32.062;34.834;2023-05-09T08:55:34;100888.81;;;25.70;48.74
75936;BME280;64614;32.062;34.834;2023-05-09T08:57:59;100895.13;;;25.70;48.69
75936;BME280;64614;32.062;34.834;2023-05-09T09:00:25;100891.56;;;25.70;48.81
75936;BME280;64614;32.062;34.834;2023-05-09T09:02:52;100889.63;;;25.70;48.41
75936;BME280;64614;32.062;34.834;2023-05-09T09:05:19;100894.00;;;25.71;48.65
75936;BME280;64614;32.062;34.834;2023-05-09T09:07:45;100896.41;;;25.73;48.44
75936;BME280;64614;32.062;34.834;2023-05-09T09:10:11;100888.16;;;25.73;48.44
75936;BME280;64614;32.062;34.834;2023-05-09T09:12:38;100874.91;;;25.75;48.73
75936;BME280;64614;32.062;34.834;2023-05-09T09:15:04;100883.47;;;25.73;48.64
75936;BME280;64614;32.062;34.834;2023-05-09T09:17:39;100874.91;;;25.75;48.79
75936;BME280;64614;32.062;34.834;2023-05-09T09:20:09;100882.00;;;25.76;48.67
75936;BME280;64614;32.062;34.834;2023-05-09T09:22:36;100874.25;;;25.78;48.68
75936;BME280;64614;32.062;34.834;2023-05-09T09:25:04;100858.19;;;25.80;48.51
75936;BME280;64614;32.062;34.834;2023-05-09T09:27:31;100879.91;;;25.81;48.82
75936;BME280;64614;32.062;34.834;2023-05-09T09:30:10;100868.91;;;25.81;48.78
75936;BME280;64614;32.062;34.834;2023-05-09T09:32:36;100861.28;;;25.78;48.81
75936;BME280;64614;32.062;34.834;2023-05-09T09:35:08;100866.16;;;25.81;48.88
75936;BME280;64614;32.062;34.834;2023-05-09T09:37:35;100875.19;;;25.82;48.67
75936;BME280;64614;32.062;34.834;2023-05-09T09:40:02;100865.00;;;25.83;48.56
75936;BME280;64614;32.062;34.834;2023-05-09T09:42:44;100866.59;;;25.84;48.71
75936;BME280;64614;32.062;34.834;2023-05-09T09:45:15;100868.22;;;25.85;48.58
75936;BME280;64614;32.062;34.834;2023-05-09T09:47:42;100850.91;;;25.84;48.53
75936;BME280;64614;32.062;34.834;2023-05-09T09:52:48;100853.81;;;25.79;48.82
75936;BME280;64614;32.062;34.834;2023-05-09T09:55:15;100852.03;;;25.83;48.90
75936;BME280;64614;32.062;34.834;2023-05-09T09:57:41;100841.69;;;25.80;49.21
75936;BME280;64614;32.062;34.834;2023-05-09T10:00:11;100855.44;;;25.80;49.09
75936;BME280;64614;32.062;34.834;2023-05-09T10:02:51;100837.81;;;25.81;49.29
75936;BME280;64614;32.062;34.834;2023-05-09T10:05:22;100832.66;;;25.79;49.30
75936;BME280;64614;32.062;34.834;2023-05-09T10:07:50;100831.03;;;25.78;49.25
75936;BME280;64614;32.062;34.834;2023-05-09T10:10:17;100834.25;;;25.80;49.06
75936;BME280;64614;32.062;34.834;2023-05-09T10:12:43;100841.69;;;25.80;49.04
75936;BME280;64614;32.062;34.834;2023-05-09T10:15:11;100843.66;;;25.79;49.29
75936;BME280;64614;32.062;34.834;2023-05-09T10:17:40;100843.97;;;25.78;49.26
75936;BME280;64614;32.062;34.834;2023-05-09T10:20:07;100836.88;;;25.77;49.23
75936;BME280;64614;32.062;34.834;2023-05-09T10:22:37;100832.66;;;25.79;49.54
75936;BME280;64614;32.062;34.834;2023-05-09T10:25:09;100841.38;;;25.81;49.43
75936;BME280;64614;32.062;34.834;2023-05-09T10:27:38;100832.78;;;25.83;49.01
75936;BME280;64614;32.062;34.834;2023-05-09T10:30:06;100837.66;;;25.86;49.03
75936;BME280;64614;32.062;34.834;2023-05-09T10:32:53;100843.44;;;25.85;49.12
75936;BME280;64614;32.062;34.834;2023-05-09T10:35:24;100843.78;;;25.83;49.25
75936;BME280;64614;32.062;34.834;2023-05-09T10:37:51;100847.03;;;25.76;49.18
75936;BME280;64614;32.062;34.834;2023-05-09T10:40:21;100848.53;;;25.74;49.46
75936;BME280;64614;32.062;34.834;2023-05-09T10:42:47;100841.75;;;25.71;49.53
75936;BME280;64614;32.062;34.834;2023-05-09T10:45:13;100840.25;;;25.74;49.35
75936;BME280;64614;32.062;34.834;2023-05-09T10:47:40;100838.66;;;25.73;49.48
75936;BME280;64614;32.062;34.834;2023-05-09T10:55:38;100834.75;;;25.74;49.55
75936;BME280;64614;32.062;34.834;2023-05-09T10:58:29;100837.03;;;25.72;49.63
75936;BME280;64614;32.062;34.834;2023-05-09T11:00:58;100842.53;;;25.72;49.25
75936;BME280;64614;32.062;34.834;2023-05-09T11:03:26;100837.03;;;25.72;49.78
75936;BME280;64614;32.062;34.834;2023-05-09T11:05:54;100824.41;;;25.71;49.42
75936;BME280;64614;32.062;34.834;2023-05-09T11:08:28;100836.25;;;25.71;49.73
75936;BME280;64614;32.062;34.834;2023-05-09T11:10:55;100839.78;;;25.72;49.35
75936;BME280;64614;32.062;34.834;2023-05-09T11:13:23;100831.53;;;25.72;49.64
75936;BME280;64614;32.062;34.834;2023-05-09T11:18:18;100825.53;;;25.70;49.61
75936;BME280;64614;32.062;34.834;2023-05-09T11:20:45;100826.03;;;25.72;49.60
75936;BME280;64614;32.062;34.834;2023-05-09T11:23:16;100825.38;;;25.75;49.39
75936;BME280;64614;32.062;34.834;2023-05-09T11:25:45;100819.88;;;25.75;49.54
75936;BME280;64614;32.062;34.834;2023-05-09T11:28:25;100821.16;;;25.77;49.48
75936;BME280;64614;32.062;34.834;2023-05-09T11:30:52;100821.31;;;25.81;49.18
75936;BME280;64614;32.062;34.834;2023-05-09T11:33:27;100817.28;;;25.78;49.27
75936;BME280;64614;32.062;34.834;2023-05-09T11:36:13;100822.97;;;25.73;49.44
75936;BME280;64614;32.062;34.834;2023-05-09T11:38:42;100807.13;;;25.70;49.33
75936;BME280;64614;32.062;34.834;2023-05-09T11:41:08;100808.06;;;25.74;49.35
75936;BME280;64614;32.062;34.834;2023-05-09T11:43:37;100799.34;;;25.72;49.37
75936;BME280;64614;32.062;34.834;2023-05-09T11:46:03;100809.53;;;25.72;49.50
75936;BME280;64614;32.062;34.834;2023-05-09T11:48:29;100810.66;;;25.71;49.23
75936;BME280;64614;32.062;34.834;2023-05-09T11:50:55;100799.66;;;25.71;49.46
75936;BME280;64614;32.062;34.834;2023-05-09T11:53:21;100804.03;;;25.72;49.32
75936;BME280;64614;32.062;34.834;2023-05-09T11:55:47;100792.22;;;25.71;49.14
75936;BME280;64614;32.062;34.834;2023-05-09T11:58:13;100795.28;;;25.70;49.13
75936;BME280;64614;32.062;34.834;2023-05-09T12:00:46;100796.91;;;25.71;49.61
75936;BME280;64614;32.062;34.834;2023-05-09T12:03:12;100796.91;;;25.71;49.34
75936;BME280;64614;32.062;34.834;2023-05-09T12:05:38;100799.66;;;25.71;49.50
75936;BME280;64614;32.062;34.834;2023-05-09T12:08:05;100790.59;;;25.70;49.49
75936;BME280;64614;32.062;34.834;2023-05-09T12:10:31;100788.34;;;25.72;49.50
75936;BME280;64614;32.062;34.834;2023-05-09T12:13:00;100790.28;;;25.72;49.36
75936;BME280;64614;32.062;34.834;2023-05-09T12:15:26;100789.13;;;25.73;49.24
75936;BME280;64614;32.062;34.834;2023-05-09T12:18:07;100785.59;;;25.72;49.26
75936;BME280;64614;32.062;34.834;2023-05-09T12:20:43;100787.53;;;25.72;49.17
75936;BME280;64614;32.062;34.834;2023-05-09T12:23:11;100775.72;;;25.71;49.23
75936;BME280;64614;32.062;34.834;2023-05-09T12:25:48;100779.94;;;25.69;49.52
75936;BME280;64614;32.062;34.834;2023-05-09T12:28:17;100777.19;;;25.69;49.09
75936;BME280;64614;32.062;34.834;2023-05-09T12:30:44;100761.34;;;25.65;49.17
75936;BME280;64614;32.062;34.834;2023-05-09T12:33:10;100777.50;;;25.67;49.35
75936;BME280;64614;32.062;34.834;2023-05-09T12:35:38;100766.50;;;25.67;49.48
75936;BME280;64614;32.062;34.834;2023-05-09T12:38:05;100757.47;;;25.67;49.29
75936;BME280;64614;32.062;34.834;2023-05-09T12:40:31;100765.22;;;25.64;49.30
75936;BME280;64614;32.062;34.834;2023-05-09T12:42:57;100760.56;;;25.65;49.15
75936;BME280;64614;32.062;34.834;2023-05-09T12:45:27;100761.34;;;25.65;49.44
75936;BME280;64614;32.062;34.834;2023-05-09T12:47:52;100756.97;;;25.64;49.47
75936;BME280;64614;32.062;34.834;2023-05-09T12:50:18;100763.31;;;25.65;49.32
75936;BME280;64614;32.062;34.834;2023-05-09T12:52:50;100749.22;;;25.67;49.18
75936;BME280;64614;32.062;34.834;2023-05-09T12:55:17;100752.75;;;25.67;49.43
75936;BME280;64614;32.062;34.834;2023-05-09T12:57:56;100751.97;;;25.67;49.29
75936;BME280;64614;32.062;34.834;2023-05-09T13:00:22;100753.56;;;25.68;49.35
75936;BME280;64614;32.062;34.834;2023-05-09T13:02:48;100755.19;;;25.69;49.40
75936;BME280;64614;32.062;34.834;2023-05-09T13:05:18;100757.59;;;25.70;49.61